createdAt,value
2023-05-14T00:00:04.547Z,63.99
2023-05-14T00:02:30.757Z,63.82
2023-05-14T00:04:56.888Z,63.86
2023-05-14T00:07:23.010Z,63.52
2023-05-14T00:09:49.127Z,63.41
2023-05-14T00:12:15.211Z,64.14
2023-05-14T00:14:41.316Z,64.14
2023-05-14T00:17:07.391Z,62.94
2023-05-14T00:19:33.478Z,63.48
2023-05-14T00:21:59.619Z,66.45
2023-05-14T00:24:25.742Z,67.54
2023-05-14T00:26:51.835Z,67.11
2023-05-14T00:29:17.933Z,66.75
2023-05-14T00:31:44.212Z,67.27
2023-05-14T00:34:10.457Z,67.09
2023-05-14T00:36:36.565Z,67.17
2023-05-14T00:39:03.151Z,67.57
2023-05-14T00:41:29.240Z,69.65
2023-05-14T00:43:55.336Z,69.78
2023-05-14T00:46:21.433Z,69.81
2023-05-14T00:48:47.546Z,68.05
2023-05-14T00:51:13.809Z,67.04
2023-05-14T00:53:39.934Z,66.48
2023-05-14T00:56:06.067Z,65.88
2023-05-14T00:58:32.164Z,65.79
2023-05-14T01:00:58.287Z,66.64
2023-05-14T01:03:24.500Z,66.43
2023-05-14T01:05:50.633Z,66.87
2023-05-14T01:08:16.748Z,66.37
2023-05-14T01:10:42.844Z,64.68
2023-05-14T01:13:08.965Z,65.49
2023-05-14T01:15:35.073Z,66.23
2023-05-14T01:18:01.198Z,66.06
2023-05-14T01:20:27.333Z,66.48
2023-05-14T01:22:53.457Z,66.59
2023-05-14T01:25:19.563Z,65.94
2023-05-14T01:27:45.662Z,66.15
2023-05-14T01:30:11.760Z,66.02
2023-05-14T01:32:37.918Z,65.92
2023-05-14T01:35:04.013Z,65.84
2023-05-14T01:37:30.131Z,67.24
2023-05-14T01:39:56.307Z,67.54
2023-05-14T01:42:22.393Z,69.28
2023-05-14T01:44:48.487Z,67.96
2023-05-14T01:47:14.581Z,66.63
2023-05-14T01:49:40.678Z,66.09
2023-05-14T01:52:06.795Z,65.15
2023-05-14T01:54:32.922Z,65.72
2023-05-14T01:56:59.018Z,63.99
2023-05-14T01:59:25.111Z,63.97
2023-05-14T02:01:51.325Z,64.76
2023-05-14T02:04:17.631Z,65.66
2023-05-14T02:06:43.792Z,65.77
2023-05-14T02:09:09.906Z,65.52
2023-05-14T02:11:36.012Z,66.22
2023-05-14T02:14:02.107Z,65.71
2023-05-14T02:16:28.286Z,65.05
2023-05-14T02:18:54.476Z,65.27
2023-05-14T02:21:20.654Z,65.48
2023-05-14T02:23:46.760Z,65.02
2023-05-14T02:26:12.960Z,64.46
2023-05-14T02:28:39.124Z,64.60
2023-05-14T02:31:05.299Z,65.67
2023-05-14T02:33:31.544Z,65.53
2023-05-14T02:35:57.742Z,65.31
2023-05-14T02:38:24.173Z,65.20
2023-05-14T02:40:50.315Z,67.64
2023-05-14T02:43:16.408Z,69.54
2023-05-14T02:45:43.582Z,68.72
2023-05-14T02:48:09.755Z,66.58
2023-05-14T02:50:35.903Z,66.27
2023-05-14T02:53:02.014Z,66.88
2023-05-14T02:55:28.135Z,66.23
2023-05-14T02:57:54.265Z,65.67
2023-05-14T03:00:20.405Z,65.56
2023-05-14T03:02:47.102Z,65.88
2023-05-14T03:05:13.676Z,67.12
2023-05-14T03:07:39.771Z,66.99
2023-05-14T03:10:05.881Z,65.76
2023-05-14T03:12:31.988Z,66.23
2023-05-14T03:14:58.119Z,65.69
2023-05-14T03:17:24.280Z,65.81
2023-05-14T03:19:50.454Z,66.15
2023-05-14T03:22:16.559Z,66.55
2023-05-14T03:24:42.688Z,68.23
2023-05-14T03:27:08.796Z,68.22
2023-05-14T03:29:34.919Z,67.72
2023-05-14T03:32:01.032Z,66.88
2023-05-14T03:34:27.126Z,66.27
2023-05-14T03:36:53.223Z,65.80
2023-05-14T03:39:19.341Z,65.94
2023-05-14T03:41:45.454Z,65.84
2023-05-14T03:44:11.631Z,66.02
2023-05-14T03:46:37.747Z,66.20
2023-05-14T03:49:03.974Z,65.67
2023-05-14T03:51:30.153Z,65.60
2023-05-14T03:53:56.256Z,66.60
2023-05-14T03:56:22.376Z,66.49
2023-05-14T03:58:48.479Z,66.05
2023-05-14T04:01:14.571Z,65.57
2023-05-14T04:03:40.837Z,65.98
2023-05-14T04:06:07.163Z,66.25
2023-05-14T04:08:33.264Z,66.85
2023-05-14T04:10:59.383Z,66.67
2023-05-14T04:13:25.478Z,67.43
2023-05-14T04:15:51.603Z,68.38
2023-05-14T04:18:17.724Z,68.94
2023-05-14T04:20:43.833Z,68.16
2023-05-14T04:23:09.936Z,67.81
2023-05-14T04:25:36.018Z,65.66
2023-05-14T04:28:02.117Z,65.56
2023-05-14T04:30:28.213Z,65.60
2023-05-14T04:32:54.350Z,65.80
2023-05-14T04:35:22.085Z,65.42
2023-05-14T04:37:49.519Z,65.61
2023-05-14T04:40:15.637Z,65.74
2023-05-14T04:42:41.721Z,65.79
2023-05-14T04:45:07.836Z,65.82
2023-05-14T04:47:34.036Z,65.46
2023-05-14T04:50:00.400Z,64.78
2023-05-14T04:52:26.527Z,64.45
2023-05-14T04:54:52.700Z,64.51
2023-05-14T04:57:18.875Z,64.61
2023-05-14T04:59:44.968Z,66.00
2023-05-14T05:02:11.076Z,65.84
2023-05-14T05:04:37.184Z,65.56
2023-05-14T05:07:03.290Z,64.56
2023-05-14T05:09:29.406Z,63.88
2023-05-14T05:11:55.494Z,64.53
2023-05-14T05:14:21.610Z,64.41
2023-05-14T05:16:47.718Z,64.25
2023-05-14T05:19:13.922Z,65.18
2023-05-14T05:21:40.097Z,66.08
2023-05-14T05:24:06.208Z,63.90
2023-05-14T05:26:32.334Z,63.52
2023-05-14T05:28:58.444Z,63.79
2023-05-14T05:31:24.615Z,63.96
2023-05-14T05:33:50.750Z,63.49
2023-05-14T05:36:16.835Z,63.12
2023-05-14T05:38:42.935Z,61.13
2023-05-14T05:41:09.051Z,60.98
2023-05-14T05:43:35.178Z,59.66
2023-05-14T05:46:01.314Z,58.82
2023-05-14T05:48:27.480Z,58.01
2023-05-14T05:50:53.624Z,58.97
2023-05-14T05:53:19.706Z,57.98
2023-05-14T05:55:45.819Z,58.50
2023-05-14T05:58:11.940Z,60.14
2023-05-14T06:00:38.062Z,62.11
2023-05-14T06:03:04.261Z,63.11
2023-05-14T06:05:30.442Z,64.88
2023-05-14T06:07:56.603Z,64.49
2023-05-14T06:10:22.823Z,63.22
2023-05-14T06:12:49.136Z,61.85
2023-05-14T06:15:15.256Z,63.06
2023-05-14T06:17:41.397Z,64.12
2023-05-14T06:20:07.519Z,63.45
2023-05-14T06:22:33.647Z,59.60
2023-05-14T06:24:59.778Z,59.48
2023-05-14T06:27:25.890Z,58.56
2023-05-14T06:29:52.139Z,55.87
2023-05-14T06:32:18.407Z,55.98
2023-05-14T06:34:44.561Z,55.03
2023-05-14T06:37:10.681Z,54.06
2023-05-14T06:39:36.772Z,55.16
2023-05-14T06:42:02.878Z,54.33
2023-05-14T06:44:29.033Z,54.01
2023-05-14T06:46:55.215Z,53.79
2023-05-14T06:49:21.339Z,54.36
2023-05-14T06:51:47.437Z,55.86
2023-05-14T06:54:13.558Z,54.93
2023-05-14T06:56:39.681Z,56.38
2023-05-14T06:59:05.787Z,53.75
2023-05-14T07:01:31.920Z,55.67
2023-05-14T07:03:58.131Z,55.84
2023-05-14T07:06:24.269Z,56.10
2023-05-14T07:08:50.406Z,55.65
2023-05-14T07:11:16.562Z,59.78
2023-05-14T07:13:42.657Z,61.28
2023-05-14T07:16:08.765Z,61.85
2023-05-14T07:18:34.904Z,63.66
2023-05-14T07:21:01.046Z,63.92
2023-05-14T07:23:27.165Z,66.07
2023-05-14T07:25:53.287Z,65.21
2023-05-14T07:28:19.415Z,65.45
2023-05-14T07:30:45.514Z,66.42
2023-05-14T07:33:12.006Z,67.66
2023-05-14T07:35:38.163Z,69.08
2023-05-14T07:38:04.318Z,67.89
2023-05-14T07:40:30.428Z,66.94
2023-05-14T07:42:56.566Z,64.35
2023-05-14T07:45:22.788Z,64.27
2023-05-14T07:47:49.003Z,64.65
2023-05-14T07:50:15.195Z,65.93
2023-05-14T07:52:41.312Z,65.25
2023-05-14T07:55:07.458Z,62.37
2023-05-14T07:57:33.940Z,61.65
2023-05-14T08:00:00.089Z,58.25
2023-05-14T08:02:26.278Z,55.60
2023-05-14T08:04:52.457Z,55.30
2023-05-14T08:07:18.578Z,54.63
2023-05-14T08:09:44.670Z,53.29
2023-05-14T08:12:10.768Z,51.79
2023-05-14T08:14:37.255Z,52.09
2023-05-14T08:17:03.491Z,50.94
2023-05-14T08:19:29.655Z,51.08
2023-05-14T08:21:55.780Z,50.28
2023-05-14T08:24:21.918Z,50.38
2023-05-14T08:26:48.064Z,49.35
2023-05-14T08:29:16.271Z,48.41
2023-05-14T08:31:42.919Z,47.19
2023-05-14T08:34:09.013Z,46.72
2023-05-14T08:36:35.132Z,45.70
2023-05-14T08:39:01.222Z,45.31
2023-05-14T08:41:27.316Z,45.79
2023-05-14T08:43:53.427Z,45.83
2023-05-14T08:46:19.539Z,46.34
2023-05-14T08:48:45.677Z,53.83
2023-05-14T08:51:11.831Z,58.64
2023-05-14T08:53:38.012Z,57.84
2023-05-14T08:56:04.132Z,60.24
2023-05-14T08:58:30.220Z,61.21
2023-05-14T09:00:56.440Z,64.06
2023-05-14T09:03:22.736Z,63.94
2023-05-14T09:05:48.887Z,62.26
2023-05-14T09:08:14.979Z,61.47
2023-05-14T09:10:41.098Z,62.18
2023-05-14T09:13:07.187Z,58.32
2023-05-14T09:15:33.300Z,56.73
2023-05-14T09:17:59.455Z,56.76
2023-05-14T09:20:25.998Z,57.21
2023-05-14T09:22:52.527Z,56.67
2023-05-14T09:25:18.630Z,55.22
2023-05-14T09:27:44.738Z,55.56
2023-05-14T09:30:10.835Z,51.79
2023-05-14T09:32:36.936Z,49.74
2023-05-14T09:35:03.062Z,49.79
2023-05-14T09:37:29.172Z,50.19
2023-05-14T09:39:55.284Z,49.67
2023-05-14T09:42:21.405Z,47.67
2023-05-14T09:44:47.514Z,46.13
2023-05-14T09:47:13.668Z,47.27
2023-05-14T09:49:39.820Z,45.21
2023-05-14T09:52:05.928Z,45.00
2023-05-14T09:54:32.032Z,46.24
2023-05-14T09:56:58.150Z,45.74
2023-05-14T09:59:24.262Z,48.00
2023-05-14T10:01:50.351Z,48.39
2023-05-14T10:04:16.530Z,47.48
2023-05-14T10:06:42.710Z,52.89
2023-05-14T10:09:08.834Z,53.82
2023-05-14T10:11:34.924Z,57.61
2023-05-14T10:14:01.055Z,55.79
2023-05-14T10:16:27.194Z,56.14
2023-05-14T10:18:54.516Z,53.12
2023-05-14T10:21:21.852Z,52.78
2023-05-14T10:23:47.987Z,50.85
2023-05-14T10:26:14.129Z,48.70
2023-05-14T10:28:40.253Z,47.64
2023-05-14T10:31:06.434Z,46.32
2023-05-14T10:33:32.588Z,46.03
2023-05-14T10:35:58.681Z,46.36
2023-05-14T10:38:24.785Z,46.20
2023-05-14T10:40:53.557Z,43.85
2023-05-14T10:43:20.290Z,45.93
2023-05-14T10:45:46.396Z,44.35
2023-05-14T10:48:12.589Z,43.46
2023-05-14T10:50:38.706Z,42.88
2023-05-14T10:53:04.928Z,43.49
2023-05-14T10:55:31.168Z,44.66
2023-05-14T10:57:57.260Z,45.30
2023-05-14T11:00:23.554Z,43.20
2023-05-14T11:02:49.841Z,45.08
2023-05-14T11:05:16.194Z,47.10
2023-05-14T11:07:42.415Z,45.47
2023-05-14T11:10:08.507Z,45.24
2023-05-14T11:12:34.622Z,43.95
2023-05-14T11:15:00.724Z,42.21
2023-05-14T11:17:26.863Z,45.23
2023-05-14T11:19:53.122Z,44.56
2023-05-14T11:22:19.224Z,44.75
2023-05-14T11:24:45.338Z,40.10
2023-05-14T11:27:11.434Z,39.39
2023-05-14T11:29:37.557Z,40.41
2023-05-14T11:32:03.825Z,43.09
2023-05-14T11:34:30.043Z,45.08
2023-05-14T11:36:56.182Z,50.86
2023-05-14T11:39:22.299Z,51.54
2023-05-14T11:41:48.438Z,55.37
2023-05-14T11:44:14.541Z,54.14
2023-05-14T11:46:40.724Z,56.62
2023-05-14T11:49:06.925Z,56.60
2023-05-14T11:51:33.026Z,54.27
2023-05-14T11:53:59.112Z,53.20
2023-05-14T11:56:25.243Z,50.97
2023-05-14T11:58:51.377Z,51.02
2023-05-14T12:01:17.518Z,49.51
2023-05-14T12:03:43.904Z,49.66
2023-05-14T12:06:10.316Z,45.84
2023-05-14T12:08:36.519Z,45.41
2023-05-14T12:11:02.633Z,46.28
2023-05-14T12:13:28.753Z,45.08
2023-05-14T12:15:54.900Z,41.82
2023-05-14T12:18:25.083Z,40.97
2023-05-14T12:20:51.465Z,44.70
2023-05-14T12:23:17.563Z,45.98
2023-05-14T12:25:43.660Z,44.43
2023-05-14T12:28:09.746Z,45.21
2023-05-14T12:30:35.988Z,45.38
2023-05-14T12:33:02.207Z,46.51
2023-05-14T12:35:28.377Z,47.48
2023-05-14T12:37:54.473Z,49.91
2023-05-14T12:40:20.574Z,49.22
2023-05-14T12:42:46.694Z,53.43
2023-05-14T12:45:12.814Z,54.20
2023-05-14T12:47:39.066Z,53.20
2023-05-14T12:50:05.249Z,53.53
2023-05-14T12:55:00.333Z,55.71
2023-05-14T12:57:26.422Z,56.35
2023-05-14T12:59:52.524Z,52.53
2023-05-14T13:02:18.696Z,48.48
2023-05-14T13:04:44.860Z,53.50
2023-05-14T13:07:11.000Z,53.02
2023-05-14T13:09:37.103Z,51.94
2023-05-14T13:12:03.192Z,52.53
2023-05-14T13:14:29.337Z,55.79
2023-05-14T13:16:55.591Z,56.41
2023-05-14T13:19:21.748Z,60.70
2023-05-14T13:21:47.973Z,59.02
2023-05-14T13:24:14.059Z,60.94
2023-05-14T13:26:40.152Z,60.68
2023-05-14T13:29:06.244Z,58.69
2023-05-14T13:31:32.373Z,58.06
2023-05-14T13:33:58.545Z,56.85
2023-05-14T13:36:24.630Z,61.07
2023-05-14T13:38:50.716Z,61.17
2023-05-14T13:41:16.883Z,57.84
2023-05-14T13:43:43.018Z,55.80
2023-05-14T13:46:09.143Z,53.35
2023-05-14T13:48:35.324Z,53.11
2023-05-14T13:51:01.448Z,56.01
2023-05-14T13:53:27.574Z,55.04
2023-05-14T13:55:53.686Z,55.17
2023-05-14T13:58:19.804Z,53.91
2023-05-14T14:00:45.933Z,58.54
2023-05-14T14:03:12.031Z,54.33
2023-05-14T14:05:38.226Z,52.53
2023-05-14T14:08:13.111Z,52.29
2023-05-14T14:10:48.537Z,51.02
2023-05-14T14:13:14.632Z,52.06
2023-05-14T14:15:40.729Z,55.16
2023-05-14T14:18:06.887Z,55.09
2023-05-14T14:20:33.007Z,56.15
2023-05-14T14:22:59.083Z,53.40
2023-05-14T14:25:25.467Z,51.67
2023-05-14T14:27:51.730Z,53.14
2023-05-14T14:30:17.844Z,51.10
2023-05-14T14:32:43.958Z,51.57
2023-05-14T14:35:10.128Z,49.05
2023-05-14T14:37:36.276Z,51.71
2023-05-14T14:40:02.386Z,49.79
2023-05-14T14:42:28.495Z,51.45
2023-05-14T14:44:54.584Z,52.21
2023-05-14T14:47:20.710Z,52.81
2023-05-14T14:49:46.890Z,51.77
2023-05-14T14:52:13.145Z,52.72
2023-05-14T14:54:39.263Z,51.57
2023-05-14T14:57:05.368Z,53.91
2023-05-14T14:59:31.456Z,52.28
2023-05-14T15:01:57.570Z,52.07
2023-05-14T15:04:23.768Z,53.58
2023-05-14T15:06:49.930Z,54.46
2023-05-14T15:09:16.058Z,53.35
2023-05-14T15:11:42.190Z,52.22
2023-05-14T15:14:08.313Z,52.32
2023-05-14T15:16:34.423Z,53.14
2023-05-14T15:19:00.687Z,55.75
2023-05-14T15:21:26.877Z,54.91
2023-05-14T15:23:52.994Z,55.01
2023-05-14T15:26:19.114Z,52.67
2023-05-14T15:28:45.224Z,55.20
2023-05-14T15:31:11.692Z,54.23
2023-05-14T15:33:37.810Z,53.89
2023-05-14T15:36:03.947Z,51.48
2023-05-14T15:38:30.215Z,50.10
2023-05-14T15:40:56.341Z,51.32
2023-05-14T15:43:22.478Z,49.62
2023-05-14T15:45:48.565Z,49.96
2023-05-14T15:48:14.703Z,49.75
2023-05-14T15:50:40.919Z,49.81
2023-05-14T15:53:07.020Z,51.00
2023-05-14T15:55:33.105Z,50.12
2023-05-14T15:57:59.213Z,50.65
2023-05-14T16:00:25.551Z,50.24
2023-05-14T16:02:51.877Z,50.05
2023-05-14T16:05:18.054Z,50.91
2023-05-14T16:07:44.170Z,52.42
2023-05-14T16:10:10.267Z,52.02
2023-05-14T16:12:36.387Z,51.68
2023-05-14T16:15:02.524Z,52.38
2023-05-14T16:17:28.669Z,53.39
2023-05-14T16:19:56.244Z,53.95
2023-05-14T16:22:22.779Z,54.80
2023-05-14T16:24:48.888Z,54.87
2023-05-14T16:27:14.992Z,55.12
2023-05-14T16:29:41.110Z,55.26
2023-05-14T16:32:07.273Z,54.21
2023-05-14T16:34:33.449Z,53.75
2023-05-14T16:36:59.548Z,53.14
2023-05-14T16:39:25.652Z,52.17
2023-05-14T16:41:51.767Z,50.44
2023-05-14T16:44:17.877Z,51.69
2023-05-14T16:46:44.428Z,51.32
2023-05-14T16:49:10.563Z,51.89
2023-05-14T16:51:36.726Z,51.01
2023-05-14T16:54:02.859Z,50.55
2023-05-14T16:56:28.955Z,50.60
2023-05-14T16:58:55.054Z,48.69
2023-05-14T17:01:21.327Z,47.73
2023-05-14T17:03:47.451Z,47.37
2023-05-14T17:06:13.601Z,46.87
2023-05-14T17:08:39.742Z,46.75
2023-05-14T17:11:06.102Z,46.90
2023-05-14T17:13:32.268Z,46.84
2023-05-14T17:15:58.437Z,45.95
2023-05-14T17:18:24.573Z,45.97
2023-05-14T17:20:50.704Z,46.32
2023-05-14T17:23:19.808Z,46.28
2023-05-14T17:25:45.889Z,45.31
2023-05-14T17:28:12.063Z,45.51
2023-05-14T17:30:38.167Z,46.18
2023-05-14T17:33:04.420Z,47.95
2023-05-14T17:35:30.640Z,47.00
2023-05-14T17:37:57.880Z,50.43
2023-05-14T17:40:25.019Z,53.64
2023-05-14T17:42:51.121Z,53.72
2023-05-14T17:45:17.223Z,53.10
2023-05-14T17:47:43.547Z,52.81
2023-05-14T17:50:09.676Z,55.75
2023-05-14T17:52:35.818Z,55.55
2023-05-14T17:55:02.072Z,56.46
2023-05-14T17:57:28.202Z,56.25
2023-05-14T17:59:54.326Z,57.30
2023-05-14T18:02:20.429Z,56.61
2023-05-14T18:04:46.569Z,55.58
2023-05-14T18:07:12.744Z,56.13
2023-05-14T18:09:38.833Z,55.24
2023-05-14T18:12:04.941Z,55.14
2023-05-14T18:14:31.056Z,55.69
2023-05-14T18:16:57.226Z,55.21
2023-05-14T18:19:25.775Z,55.45
2023-05-14T18:21:51.901Z,54.49
2023-05-14T18:24:18.049Z,56.69
2023-05-14T18:26:44.139Z,58.93
2023-05-14T18:29:10.532Z,59.35
2023-05-14T18:31:36.686Z,59.35
2023-05-14T18:34:02.950Z,59.88
2023-05-14T18:36:29.062Z,59.89
2023-05-14T18:38:55.187Z,59.83
2023-05-14T18:41:21.314Z,60.54
2023-05-14T18:43:47.427Z,61.52
2023-05-14T18:46:13.597Z,61.87
2023-05-14T18:48:39.722Z,62.21
2023-05-14T18:51:05.827Z,61.72
2023-05-14T18:53:31.931Z,61.01
2023-05-14T18:55:58.028Z,62.83
2023-05-14T18:58:24.137Z,63.43
2023-05-14T19:00:50.259Z,62.92
2023-05-14T19:03:16.496Z,63.39
2023-05-14T19:05:42.660Z,63.51
2023-05-14T19:08:08.766Z,63.10
2023-05-14T19:10:34.861Z,63.11
2023-05-14T19:13:00.985Z,63.35
2023-05-14T19:15:27.167Z,63.90
2023-05-14T19:17:53.297Z,64.00
2023-05-14T19:20:19.482Z,63.44
2023-05-14T19:22:45.642Z,62.40
2023-05-14T19:25:11.754Z,64.26
2023-05-14T19:27:37.882Z,64.48
2023-05-14T19:30:03.998Z,64.36
2023-05-14T19:32:30.159Z,64.38
2023-05-14T19:34:56.300Z,64.50
2023-05-14T19:37:22.397Z,63.55
2023-05-14T19:39:48.491Z,65.38
2023-05-14T19:42:14.581Z,66.18
2023-05-14T19:44:40.702Z,67.04
2023-05-14T19:47:06.874Z,65.94
2023-05-14T19:49:33.078Z,65.17
2023-05-14T19:51:59.200Z,66.92
2023-05-14T19:54:25.310Z,66.96
2023-05-14T19:56:51.445Z,67.24
2023-05-14T19:59:17.565Z,67.33
2023-05-14T20:01:43.878Z,66.92
2023-05-14T20:04:10.137Z,66.01
2023-05-14T20:06:36.232Z,65.90
2023-05-14T20:09:02.328Z,65.56
2023-05-14T20:11:28.426Z,66.06
2023-05-14T20:13:54.553Z,66.50
2023-05-14T20:16:20.667Z,66.34
2023-05-14T20:18:46.860Z,67.40
2023-05-14T20:21:12.996Z,67.26
2023-05-14T20:23:39.106Z,67.21
2023-05-14T20:26:05.238Z,67.14
2023-05-14T20:28:31.352Z,66.81
2023-05-14T20:30:57.487Z,66.49
2023-05-14T20:33:23.626Z,65.87
2023-05-14T20:35:49.760Z,66.50
2023-05-14T20:38:15.844Z,65.91
2023-05-14T20:40:42.041Z,65.97
2023-05-14T20:43:08.136Z,65.95
2023-05-14T20:45:34.247Z,66.00
2023-05-14T20:48:00.413Z,66.37
2023-05-14T20:50:26.531Z,66.41
2023-05-14T20:52:52.674Z,65.78
2023-05-14T20:55:18.788Z,66.74
2023-05-14T20:57:44.875Z,66.42
2023-05-14T21:00:11.012Z,66.51
2023-05-14T21:02:37.287Z,65.73
2023-05-14T21:05:03.697Z,65.79
2023-05-14T21:07:29.828Z,65.78
2023-05-14T21:09:55.935Z,66.16
2023-05-14T21:12:22.079Z,66.50
2023-05-14T21:14:48.167Z,66.02
2023-05-14T21:17:14.268Z,65.50
2023-05-14T21:19:40.371Z,65.79
2023-05-14T21:22:06.496Z,65.19
2023-05-14T21:24:32.614Z,66.34
2023-05-14T21:26:58.728Z,66.58
2023-05-14T21:29:24.842Z,67.01
2023-05-14T21:31:50.984Z,66.78
2023-05-14T21:34:17.136Z,67.27
2023-05-14T21:36:43.274Z,67.43
2023-05-14T21:39:09.364Z,67.39
2023-05-14T21:41:35.477Z,67.75
2023-05-14T21:44:01.602Z,67.89
2023-05-14T21:46:27.690Z,68.25
2023-05-14T21:48:53.886Z,68.58
2023-05-14T21:51:20.115Z,68.42
2023-05-14T21:53:46.204Z,68.26
2023-05-14T21:56:12.317Z,68.24
2023-05-14T21:58:38.411Z,68.67
2023-05-14T22:01:04.588Z,68.24
2023-05-14T22:03:30.843Z,68.43
2023-05-14T22:05:57.092Z,68.79
2023-05-14T22:08:23.203Z,68.78
2023-05-14T22:10:49.316Z,68.84
2023-05-14T22:13:15.424Z,69.25
2023-05-14T22:15:41.570Z,69.39
2023-05-14T22:18:07.820Z,69.22
2023-05-14T22:20:34.097Z,68.93
2023-05-14T22:23:00.203Z,68.41
2023-05-14T22:25:26.599Z,68.46
2023-05-14T22:27:52.958Z,67.83
2023-05-14T22:30:19.080Z,67.26
2023-05-14T22:32:45.213Z,67.27
2023-05-14T22:35:11.362Z,67.39
2023-05-14T22:37:37.452Z,66.39
2023-05-14T22:40:03.553Z,67.47
2023-05-14T22:42:29.665Z,66.99
2023-05-14T22:44:55.745Z,66.01
2023-05-14T22:47:21.902Z,64.81
2023-05-14T22:49:48.041Z,65.00
2023-05-14T22:52:14.153Z,65.25
2023-05-14T22:54:40.280Z,64.77
2023-05-14T22:57:06.393Z,66.35
2023-05-14T22:59:32.499Z,67.41
2023-05-14T23:01:58.627Z,68.16
2023-05-14T23:04:24.793Z,68.47
2023-05-14T23:06:50.937Z,67.45
2023-05-14T23:09:17.033Z,66.28
2023-05-14T23:11:43.160Z,66.21
2023-05-14T23:14:09.321Z,65.37
2023-05-14T23:16:35.650Z,65.83
2023-05-14T23:19:01.885Z,66.11
2023-05-14T23:21:28.130Z,66.55
2023-05-14T23:23:54.215Z,66.40
2023-05-14T23:26:20.342Z,66.39
2023-05-14T23:28:46.595Z,66.56
2023-05-14T23:31:12.725Z,66.38
2023-05-14T23:33:38.832Z,66.54
2023-05-14T23:36:05.060Z,66.93
2023-05-14T23:38:31.164Z,66.46
2023-05-14T23:40:57.278Z,67.07
2023-05-14T23:43:23.396Z,66.31
2023-05-14T23:45:49.551Z,65.96
2023-05-14T23:48:15.728Z,66.11
2023-05-14T23:50:41.833Z,65.82
2023-05-14T23:53:07.938Z,65.76
2023-05-14T23:55:34.039Z,66.91
2023-05-14T23:58:00.132Z,66.03
